Time;durP1;ratioP1;P1;durP2;ratioP2;P2;SDS_P1;SDS_P2;PMS_P1;PMS_P2;Temp;Humidity;BMP_temperature;BMP_pressure;BME280_temperature;BME280_humidity;BME280_pressure;Samples;Min_cycle;Max_cycle;Signal;HPM_P1;HPM_P2
2024/01/27 00:05:13;;;;;;;16.50;5.60;;;;;;;6.37;100.00;100136.48;681412;1269;140245;-81
2024/01/27 00:20:17;;;;;;;21.50;4.80;;;;;;;6.39;100.00;100141.57;681653;1264;140416;-81
2024/01/27 00:35:21;;;;;;;17.20;3.60;;;;;;;6.41;100.00;100156.92;681353;1267;139901;-82
2024/01/27 00:50:27;;;;;;;14.10;4.70;;;;;;;6.29;99.92;100164.55;681334;1267;139468;-82
2024/01/27 01:05:32;;;;;;;19.30;3.50;;;;;;;6.25;99.65;100174.52;681465;1267;139541;-82
2024/01/27 01:20:36;;;;;;;16.00;3.30;;;;;;;6.21;98.81;100174.30;681418;1266;142075;-81
2024/01/27 01:35:39;;;;;;;22.90;7.20;;;;;;;6.17;99.14;100174.27;681524;1267;141137;-81
2024/01/27 01:50:44;;;;;;;12.30;3.50;;;;;;;6.15;98.69;100166.23;681670;1266;141110;-81
2024/01/27 02:05:48;;;;;;;13.40;3.30;;;;;;;6.17;98.37;100169.52;681803;1264;139063;-80
2024/01/27 02:20:52;;;;;;;17.00;2.70;;;;;;;6.19;98.07;100179.30;681748;1261;142053;-79
2024/01/27 02:35:56;;;;;;;11.00;3.30;;;;;;;6.20;97.19;100180.46;681673;1267;141496;-80
2024/01/27 02:51:03;;;;;;;11.40;2.70;;;;;;;6.32;97.00;100180.11;681519;1267;144358;-80
2024/01/27 03:06:08;;;;;;;12.80;2.70;;;;;;;6.35;95.46;100181.45;681597;1265;141034;-82
2024/01/27 03:21:12;;;;;;;10.20;2.20;;;;;;;6.29;94.87;100169.44;681428;1266;139673;-80
2024/01/27 03:36:15;;;;;;;16.30;5.60;;;;;;;6.28;95.00;100173.96;681674;1265;138813;-79
2024/01/27 03:51:19;;;;;;;8.20;2.50;;;;;;;6.11;94.72;100173.95;681465;1264;140863;-81
2024/01/27 04:06:23;;;;;;;12.60;3.20;;;;;;;6.16;94.53;100167.89;681546;1265;138677;-81
2024/01/27 04:21:27;;;;;;;11.90;3.90;;;;;;;6.02;94.98;100179.30;681538;1260;139033;-81
2024/01/27 04:36:31;;;;;;;21.70;6.70;;;;;;;5.77;96.66;100188.63;681929;1263;141045;-81
2024/01/27 04:51:35;;;;;;;11.90;4.00;;;;;;;5.60;96.86;100186.48;681418;1266;139394;-82
2024/01/27 05:06:45;;;;;;;31.50;8.20;;;;;;;5.53;97.81;100182.64;681619;1263;139236;-82
2024/01/27 05:21:50;;;;;;;19.30;6.90;;;;;;;5.50;98.05;100191.52;681691;1265;139633;-82
2024/01/27 05:36:55;;;;;;;31.70;9.70;;;;;;;5.53;98.57;100206.27;681739;1264;138899;-81
2024/01/27 05:51:59;;;;;;;38.70;12.90;;;;;;;5.47;98.44;100211.35;681219;1265;138922;-81
2024/01/27 06:07:03;;;;;;;20.20;6.20;;;;;;;5.36;99.13;100227.16;681641;1267;140016;-82
2024/01/27 06:22:08;;;;;;;17.60;7.00;;;;;;;5.35;98.95;100239.52;681731;1266;139797;-82
2024/01/27 06:37:12;;;;;;;28.70;11.50;;;;;;;5.30;99.45;100253.06;681785;1262;138762;-80
2024/01/27 06:52:16;;;;;;;24.30;11.30;;;;;;;5.37;99.43;100274.45;681712;1261;139589;-80
2024/01/27 07:07:26;;;;;;;16.60;5.20;;;;;;;5.43;98.96;100304.40;681754;1263;138559;-80
2024/01/27 07:22:30;;;;;;;8.10;4.00;;;;;;;5.50;98.24;100337.91;681474;1262;222189;-81
2024/01/27 07:37:33;;;;;;;14.60;6.90;;;;;;;5.53;97.90;100368.98;681220;1262;138630;-82
2024/01/27 07:52:37;;;;;;;35.50;12.70;;;;;;;5.44;98.00;100406.70;681847;1262;139698;-83
2024/01/27 08:07:42;;;;;;;77.30;31.50;;;;;;;5.36;97.77;100440.00;681633;1262;139007;-83
2024/01/27 08:22:50;;;;;;;308.70;145.30;;;;;;;5.31;97.34;100481.21;681568;1262;139905;-84
2024/01/27 08:37:53;;;;;;;117.00;68.80;;;;;;;5.36;97.10;100512.48;681770;1266;141291;-81
2024/01/27 08:53:01;;;;;;;34.50;17.90;;;;;;;5.21;98.04;100543.92;681929;1262;139648;-84
2024/01/27 09:08:08;;;;;;;31.90;18.60;;;;;;;5.27;98.17;100587.08;682010;1262;140662;-83
2024/01/27 09:23:13;;;;;;;14.90;7.10;;;;;;;5.58;98.37;100623.70;681760;1265;139169;-82
2024/01/27 09:38:19;;;;;;;7.90;4.80;;;;;;;6.03;97.69;100660.55;681807;1264;138864;-82
2024/01/27 09:53:22;;;;;;;7.90;3.90;;;;;;;5.98;97.05;100689.30;681728;1265;138736;-83
2024/01/27 10:08:27;;;;;;;32.60;14.80;;;;;;;5.83;97.16;100727.55;681780;1263;138870;-81
2024/01/27 10:23:32;;;;;;;92.70;28.40;;;;;;;5.92;97.33;100755.79;681387;1266;140454;-81
2024/01/27 10:38:38;;;;;;;18.50;8.00;;;;;;;6.02;97.25;100787.55;681382;1263;139370;-82
2024/01/27 10:53:48;;;;;;;14.20;7.40;;;;;;;6.02;96.57;100816.67;681792;1266;139453;-82
2024/01/27 11:08:52;;;;;;;21.10;10.40;;;;;;;6.02;96.63;100842.02;681625;1265;139161;-82
2024/01/27 11:23:57;;;;;;;9.10;5.90;;;;;;;6.23;97.82;100867.02;681431;1266;141267;-84
2024/01/27 11:39:03;;;;;;;37.30;13.90;;;;;;;6.49;96.56;100907.70;681856;1266;139065;-83
2024/01/27 11:54:08;;;;;;;18.10;8.40;;;;;;;6.42;96.90;100934.67;681810;1268;139461;-82
2024/01/27 12:09:13;;;;;;;54.90;26.20;;;;;;;6.31;97.11;100968.33;681821;1266;139680;-84
2024/01/27 12:24:19;;;;;;;40.90;17.50;;;;;;;6.47;96.86;101004.06;681967;1266;139301;-84
2024/01/27 12:39:27;;;;;;;26.50;11.20;;;;;;;6.44;96.25;101038.30;681632;1267;141460;-83
2024/01/27 12:54:32;;;;;;;28.60;12.60;;;;;;;6.19;96.82;101073.59;681336;1265;139720;-83
2024/01/27 13:09:37;;;;;;;37.70;14.60;;;;;;;6.36;96.70;101104.95;681510;1265;140091;-82
2024/01/27 13:24:42;;;;;;;31.20;12.20;;;;;;;6.49;96.58;101137.58;681685;1265;140299;-82
2024/01/27 13:39:46;;;;;;;36.60;14.60;;;;;;;6.41;96.46;101166.85;681745;1263;140143;-81
2024/01/27 13:54:50;;;;;;;28.40;13.20;;;;;;;6.46;96.79;101184.80;681762;1263;139192;-82
2024/01/27 14:09:55;;;;;;;41.10;13.90;;;;;;;6.55;96.45;101199.45;681635;1267;139459;-82
2024/01/27 14:24:59;;;;;;;33.00;16.50;;;;;;;6.53;94.78;101230.35;681711;1263;139222;-83
2024/01/27 14:40:05;;;;;;;17.40;6.90;;;;;;;6.43;93.02;101266.86;681672;1265;139754;-83
2024/01/27 14:55:14;;;;;;;22.40;10.20;;;;;;;6.51;93.15;101289.69;681800;1262;139246;-83
2024/01/27 15:10:19;;;;;;;45.20;19.00;;;;;;;6.52;93.15;101322.87;681600;1266;139244;-82
2024/01/27 15:25:25;;;;;;;31.50;14.80;;;;;;;6.40;92.71;101347.29;681269;1267;140336;-82
2024/01/27 15:40:30;;;;;;;27.80;11.50;;;;;;;6.42;92.47;101376.02;681335;1266;139511;-81
2024/01/27 15:55:35;;;;;;;42.60;17.00;;;;;;;6.32;91.92;101409.55;681694;1266;140106;-81
2024/01/27 16:10:39;;;;;;;53.30;22.80;;;;;;;6.14;91.21;101445.41;681683;1267;139063;-81
2024/01/27 16:25:44;;;;;;;29.30;10.80;;;;;;;5.82;90.66;101484.34;681611;1264;140621;-81
2024/01/27 16:40:49;;;;;;;48.50;21.30;;;;;;;5.56;91.04;101505.35;681553;1268;139109;-80
2024/01/27 16:56:08;;;;;;;74.40;26.80;;;;;;;5.45;91.42;101542.99;681839;1267;139861;-81
2024/01/27 17:11:15;;;;;;;44.80;19.30;;;;;;;5.42;91.74;101566.55;681679;1264;139041;-81
2024/01/27 17:26:20;;;;;;;41.50;16.80;;;;;;;5.36;91.59;101582.60;681573;1264;139258;-82
2024/01/27 17:41:26;;;;;;;89.30;31.30;;;;;;;5.20;91.46;101598.95;681576;1263;139938;-82
2024/01/27 17:56:33;;;;;;;97.40;28.40;;;;;;;4.87;91.28;101621.89;681852;1262;139456;-82
2024/01/27 18:11:38;;;;;;;186.10;56.40;;;;;;;4.58;90.63;101634.70;681690;1265;139827;-81
2024/01/27 18:26:44;;;;;;;104.80;31.50;;;;;;;4.30;90.67;101657.67;681831;1264;139219;-81
2024/01/27 18:41:50;;;;;;;113.70;41.50;;;;;;;4.12;91.10;101681.39;681318;1266;139944;-81
2024/01/27 18:56:57;;;;;;;163.80;59.80;;;;;;;4.07;90.83;101693.48;681643;1266;141274;-82
2024/01/27 19:12:01;;;;;;;139.00;48.90;;;;;;;3.96;90.75;101712.63;681623;1264;140213;-83
2024/01/27 19:27:07;;;;;;;106.50;34.20;;;;;;;3.78;90.38;101736.31;681258;1260;227028;-82
2024/01/27 19:42:13;;;;;;;94.30;37.50;;;;;;;3.50;91.25;101764.11;681773;1262;139256;-84
2024/01/27 19:57:21;;;;;;;237.70;89.60;;;;;;;3.41;92.16;101778.77;681704;1266;139437;-81
2024/01/27 20:12:29;;;;;;;88.80;31.40;;;;;;;3.58;92.80;101801.38;681764;1263;139333;-82
2024/01/27 20:27:35;;;;;;;92.10;34.40;;;;;;;3.71;93.02;101827.09;681719;1265;139285;-82
2024/01/27 20:42:39;;;;;;;216.80;73.20;;;;;;;3.83;93.86;101849.85;681778;1263;139977;-83
2024/01/27 20:57:44;;;;;;;103.20;34.30;;;;;;;4.00;93.26;101861.88;681636;1266;139782;-82
2024/01/27 21:12:54;;;;;;;87.00;28.70;;;;;;;4.11;93.89;101866.70;681858;1261;139345;-84
2024/01/27 21:27:59;;;;;;;82.00;26.70;;;;;;;4.24;93.72;101877.49;681461;1260;139055;-81
2024/01/27 21:43:06;;;;;;;127.40;35.30;;;;;;;4.40;93.66;101890.09;681415;1262;139397;-82
2024/01/27 21:58:11;;;;;;;95.30;28.50;;;;;;;4.53;94.08;101894.64;681528;1262;139915;-83
2024/01/27 22:13:17;;;;;;;50.00;15.80;;;;;;;4.66;94.31;101893.78;681636;1266;139349;-83
2024/01/27 22:28:22;;;;;;;101.40;30.00;;;;;;;4.79;94.45;101907.17;681434;1262;140095;-81
2024/01/27 22:43:26;;;;;;;73.80;22.30;;;;;;;4.87;95.25;101918.48;682044;1262;139300;-81
2024/01/27 22:58:32;;;;;;;247.20;61.00;;;;;;;4.95;95.27;101937.43;681507;1263;140643;-81
2024/01/27 23:13:38;;;;;;;47.90;15.10;;;;;;;4.99;95.05;101953.77;681695;1263;139217;-82
2024/01/27 23:28:45;;;;;;;34.20;12.70;;;;;;;5.15;95.03;101957.00;681549;1265;139306;-81
2024/01/27 23:43:49;;;;;;;51.90;14.60;;;;;;;5.24;95.64;101967.39;681840;1265;139162;-81
2024/01/27 23:58:54;;;;;;;51.60;13.80;;;;;;;5.34;95.53;101982.09;681457;1262;139050;-81
